createdAt,value
2023-11-30T10:21:43.501Z,16.40
2023-11-30T10:24:13.659Z,17.30
2023-11-30T10:26:46.332Z,17.00
2023-11-30T10:29:22.648Z,17.60
2023-11-30T10:31:57.607Z,18.60
2023-11-30T10:34:32.217Z,18.20
2023-11-30T10:37:06.545Z,17.50
2023-11-30T10:39:45.600Z,17.70
2023-11-30T10:42:18.446Z,17.80
2023-11-30T10:44:52.483Z,17.60
2023-11-30T10:47:22.219Z,17.50
2023-11-30T10:49:54.066Z,16.80
2023-11-30T10:52:25.484Z,15.30
2023-11-30T10:55:05.317Z,14.00
2023-11-30T10:57:35.021Z,12.90
2023-11-30T11:00:04.783Z,12.50
2023-11-30T11:02:42.770Z,12.60
2023-11-30T11:05:14.887Z,12.80
2023-11-30T11:07:52.715Z,12.90
2023-11-30T11:10:26.253Z,13.50
2023-11-30T11:12:58.813Z,12.90
2023-11-30T11:15:29.895Z,13.50
2023-11-30T11:18:05.166Z,14.00
2023-11-30T11:20:37.554Z,13.00
2023-11-30T11:23:15.811Z,13.20
2023-11-30T11:25:52.014Z,14.20
2023-11-30T11:28:21.114Z,14.60
2023-11-30T11:30:55.253Z,14.90
2023-11-30T11:33:26.030Z,14.50
2023-11-30T11:35:57.640Z,12.20
2023-11-30T11:38:28.944Z,12.10
2023-11-30T11:41:00.779Z,11.70
2023-11-30T11:43:32.194Z,11.90
2023-11-30T11:46:04.153Z,11.70
2023-11-30T11:48:34.054Z,11.10
2023-11-30T11:51:03.145Z,11.40
2023-11-30T11:53:33.765Z,12.50
2023-11-30T11:56:09.919Z,13.20
2023-11-30T11:58:40.731Z,13.50
2023-11-30T12:01:09.824Z,13.00
2023-11-30T12:03:48.440Z,12.40
2023-11-30T12:06:28.769Z,11.60
2023-11-30T12:09:12.857Z,11.40
2023-11-30T12:11:46.178Z,11.10
2023-11-30T12:14:16.818Z,11.80
2023-11-30T12:16:46.263Z,12.20
2023-11-30T12:19:20.523Z,11.60
2023-11-30T12:21:50.869Z,11.20
2023-11-30T12:24:22.737Z,11.60
2023-11-30T12:26:52.723Z,11.40
2023-11-30T12:29:23.148Z,10.00
2023-11-30T12:31:53.523Z,9.30
2023-11-30T12:34:25.167Z,10.10
2023-11-30T12:37:17.506Z,10.40
2023-11-30T12:39:48.378Z,9.60
2023-11-30T12:42:19.900Z,9.80
2023-11-30T12:44:49.547Z,10.20
2023-11-30T12:47:18.686Z,9.30
2023-11-30T12:49:49.307Z,8.20
2023-11-30T12:52:18.719Z,7.20
2023-11-30T12:54:53.681Z,6.50
2023-11-30T12:57:25.104Z,6.10
2023-11-30T12:59:55.656Z,5.40
2023-11-30T13:02:25.715Z,5.10
2023-11-30T13:04:55.290Z,5.20
2023-11-30T13:07:25.564Z,5.00
2023-11-30T13:09:56.511Z,4.60
2023-11-30T13:12:30.302Z,4.40
2023-11-30T13:14:59.628Z,4.20
2023-11-30T13:17:29.765Z,3.80
2023-11-30T13:20:00.277Z,3.60
2023-11-30T13:22:50.603Z,3.40
2023-11-30T13:25:24.437Z,3.20
2023-11-30T13:27:53.915Z,3.00
2023-11-30T13:30:23.292Z,3.40
2023-11-30T13:32:52.309Z,2.90
2023-11-30T13:35:21.667Z,2.70
2023-11-30T13:37:51.501Z,2.60
2023-11-30T13:40:22.793Z,2.80
2023-11-30T13:42:52.783Z,2.40
2023-11-30T13:45:25.820Z,1.00
2023-11-30T13:47:55.223Z,2.00
2023-11-30T13:50:30.750Z,2.20
2023-11-30T13:53:06.447Z,2.10
2023-11-30T13:55:37.645Z,2.00
2023-11-30T13:58:09.072Z,1.90
2023-11-30T14:00:38.830Z,1.70
2023-11-30T14:03:08.134Z,1.60
2023-11-30T14:05:37.230Z,1.60
2023-11-30T14:08:07.017Z,1.50
2023-11-30T14:10:38.319Z,1.40
2023-11-30T14:13:09.088Z,1.20
2023-11-30T14:15:42.832Z,1.20
2023-11-30T14:18:11.973Z,1.40
2023-11-30T14:20:43.040Z,0.90
2023-11-30T14:23:12.507Z,0.90
2023-11-30T14:25:43.585Z,0.70
2023-11-30T14:28:13.966Z,0.60
2023-11-30T14:30:44.651Z,1.30
2023-11-30T14:33:14.579Z,1.50
2023-11-30T14:35:44.008Z,0.90
2023-11-30T14:38:13.315Z,0.20
2023-11-30T14:40:44.182Z,0.20
2023-11-30T14:43:14.031Z,0.50
2023-11-30T14:45:43.787Z,-0.10
2023-11-30T14:48:13.469Z,-0.30
2023-11-30T14:50:43.119Z,0.40
2023-11-30T14:53:12.845Z,0.10
2023-11-30T14:55:43.702Z,-0.30
2023-11-30T14:58:13.381Z,-0.40
2023-11-30T15:00:42.744Z,-0.50
2023-11-30T15:03:12.707Z,-0.40
2023-11-30T15:05:45.844Z,-0.60
2023-11-30T15:08:16.425Z,-0.70
2023-11-30T15:10:50.983Z,0.60
2023-11-30T15:13:21.795Z,-0.90
2023-11-30T15:15:51.392Z,-1.00
2023-11-30T15:18:21.975Z,-0.80
2023-11-30T15:20:53.381Z,-1.40
2023-11-30T15:23:27.216Z,-1.50
2023-11-30T15:25:58.257Z,-1.70
2023-11-30T15:28:27.873Z,-1.00
2023-11-30T15:31:00.934Z,-2.20
2023-11-30T15:33:30.888Z,-2.00
2023-11-30T15:36:04.074Z,-2.50
2023-11-30T15:38:35.441Z,-2.10
2023-11-30T15:41:11.605Z,-2.10
2023-11-30T15:43:41.518Z,-2.30
2023-11-30T15:46:13.467Z,0.20
2023-11-30T15:48:43.362Z,-2.00
2023-11-30T15:51:13.333Z,-2.70
2023-11-30T15:53:42.940Z,-2.10
2023-11-30T15:56:22.132Z,-2.70
2023-11-30T15:58:55.574Z,-2.30
2023-11-30T16:01:28.642Z,-2.90
2023-11-30T16:03:59.627Z,-2.00
2023-11-30T16:06:33.952Z,-2.70
2023-11-30T16:09:10.791Z,-3.10
2023-11-30T16:11:42.143Z,-3.20
2023-11-30T16:14:12.118Z,-3.30
2023-11-30T16:16:43.008Z,-3.30
2023-11-30T16:19:12.685Z,-3.80
2023-11-30T16:21:42.551Z,-3.50
2023-11-30T16:24:12.426Z,-2.40
2023-11-30T16:26:44.205Z,-3.40
2023-11-30T16:29:22.529Z,-3.40
2023-11-30T16:31:53.435Z,-4.00
2023-11-30T16:34:32.200Z,-3.10
2023-11-30T16:37:08.658Z,-3.70
2023-11-30T16:39:41.401Z,-3.60
2023-11-30T16:42:14.974Z,-3.60
2023-11-30T16:44:48.084Z,-4.20
2023-11-30T16:47:19.703Z,-3.70
2023-11-30T16:49:49.560Z,-3.80
2023-11-30T16:52:19.150Z,-3.90
2023-11-30T16:54:48.451Z,-3.60
2023-11-30T16:57:19.348Z,-3.50
2023-11-30T16:59:49.196Z,-3.20
2023-11-30T17:02:18.704Z,-5.20
2023-11-30T17:04:48.421Z,-3.80
2023-11-30T17:07:17.960Z,-3.70
2023-11-30T17:09:50.082Z,-3.40
2023-11-30T17:12:23.471Z,-3.80
2023-11-30T17:14:54.916Z,-4.00
2023-11-30T17:17:36.080Z,-4.00
2023-11-30T17:20:17.622Z,-4.10
2023-11-30T17:22:50.112Z,-2.40
2023-11-30T17:25:23.032Z,-3.30
2023-11-30T17:27:55.148Z,-4.20
2023-11-30T17:30:27.124Z,-4.70
2023-11-30T17:32:56.606Z,-3.80
2023-11-30T17:35:28.244Z,-4.50
2023-11-30T17:37:58.634Z,-4.30
2023-11-30T17:40:28.775Z,-4.40
2023-11-30T17:43:03.085Z,-4.40
2023-11-30T17:45:32.934Z,-4.60
2023-11-30T17:48:02.816Z,-4.50
2023-11-30T17:50:33.705Z,-4.50
2023-11-30T17:53:04.087Z,-3.70
2023-11-30T17:55:34.525Z,-4.60
2023-11-30T17:58:05.458Z,-4.70
2023-11-30T18:00:35.192Z,-4.70
2023-11-30T18:03:04.602Z,-4.60
2023-11-30T18:05:34.233Z,-3.90
2023-11-30T18:08:03.566Z,-4.30
2023-11-30T18:10:32.930Z,-4.90
2023-11-30T18:13:02.616Z,-4.70
2023-11-30T18:15:35.453Z,-4.70
2023-11-30T18:18:05.640Z,-4.70
2023-11-30T18:20:35.574Z,-4.60
2023-11-30T18:23:04.968Z,-4.20
2023-11-30T18:25:34.630Z,-4.80
2023-11-30T18:28:04.446Z,-3.90
2023-11-30T18:30:36.578Z,-4.80
2023-11-30T18:33:08.114Z,-4.80
2023-11-30T18:35:37.642Z,-4.80
2023-11-30T18:38:07.121Z,-4.90
2023-11-30T18:40:37.166Z,-4.80
2023-11-30T18:43:07.163Z,-4.90
2023-11-30T18:45:40.196Z,-4.90
2023-11-30T18:48:11.854Z,-5.10
2023-11-30T18:50:42.083Z,-5.00
2023-11-30T18:53:11.686Z,-5.10
2023-11-30T18:55:44.545Z,-4.80
2023-11-30T18:58:21.526Z,-3.90
2023-11-30T19:00:55.501Z,-4.70
2023-11-30T19:03:27.849Z,-4.50
2023-11-30T19:06:00.551Z,-4.40
2023-11-30T19:08:31.507Z,-4.50
2023-11-30T19:11:02.947Z,-4.90
2023-11-30T19:13:35.865Z,-3.60
2023-11-30T19:16:12.155Z,-4.20
2023-11-30T19:18:41.899Z,-4.30
2023-11-30T19:21:13.273Z,-4.20
2023-11-30T19:23:49.393Z,-3.40
2023-11-30T19:26:19.366Z,-4.30
2023-11-30T19:28:48.833Z,-4.50
2023-11-30T19:31:24.371Z,-4.10
2023-11-30T19:34:02.237Z,-4.00
2023-11-30T19:36:32.204Z,-4.00
2023-11-30T19:39:01.924Z,-3.20
2023-11-30T19:41:33.471Z,-3.00
2023-11-30T19:44:06.020Z,-4.40
2023-11-30T19:46:41.854Z,-3.90
2023-11-30T19:49:17.373Z,-4.00
2023-11-30T19:51:51.605Z,-3.70
2023-11-30T19:54:21.080Z,-3.90
2023-11-30T19:56:50.352Z,-3.90
2023-11-30T19:59:20.995Z,-4.00
2023-11-30T20:01:52.486Z,-3.90
2023-11-30T20:04:22.549Z,-4.00
2023-11-30T20:06:52.110Z,-4.10
2023-11-30T20:09:21.565Z,-3.90
2023-11-30T20:11:51.388Z,-3.90
2023-11-30T20:14:21.388Z,-3.60
2023-11-30T20:16:52.385Z,-4.50
2023-11-30T20:19:22.132Z,-3.90
2023-11-30T20:21:51.649Z,-4.00
2023-11-30T20:24:21.273Z,-3.70
2023-11-30T20:26:50.568Z,-4.00
2023-11-30T20:29:19.869Z,-4.10
2023-11-30T20:31:49.582Z,-4.00
2023-11-30T20:34:21.445Z,-4.20
2023-11-30T20:36:52.969Z,-4.40
2023-11-30T20:39:23.790Z,-4.20
2023-11-30T20:41:53.994Z,-1.80
2023-11-30T20:44:23.721Z,-4.10
2023-11-30T20:46:53.477Z,-4.10
2023-11-30T20:49:27.577Z,-5.20
2023-11-30T20:51:57.424Z,-4.10
2023-11-30T20:54:26.964Z,-4.20
2023-11-30T20:56:58.415Z,-3.50
2023-11-30T20:59:32.200Z,-4.00
2023-11-30T21:02:05.929Z,-4.00
2023-11-30T21:04:47.580Z,-4.00
2023-11-30T21:07:28.919Z,-4.00
2023-11-30T21:10:01.550Z,-3.90
2023-11-30T21:12:31.846Z,-3.80
2023-11-30T21:15:01.640Z,-2.50
2023-11-30T21:17:31.811Z,-4.00
2023-11-30T21:20:03.314Z,-3.90
2023-11-30T21:22:36.027Z,-3.80
2023-11-30T21:25:06.002Z,-4.00
2023-11-30T21:27:35.926Z,-3.70
2023-11-30T21:30:07.702Z,-3.90
2023-11-30T21:32:37.477Z,-3.80
2023-11-30T21:35:13.945Z,-3.10
2023-11-30T21:37:43.416Z,-3.40
2023-11-30T21:40:14.350Z,-3.40
2023-11-30T21:42:44.301Z,-3.20
2023-11-30T21:45:14.270Z,-2.70
2023-11-30T21:47:44.113Z,-3.60
2023-11-30T21:50:23.552Z,-3.70
2023-11-30T21:52:54.959Z,-3.70
2023-11-30T21:55:25.074Z,-2.70
2023-11-30T21:57:55.128Z,-3.80
2023-11-30T22:00:25.186Z,-4.50
2023-11-30T22:02:55.705Z,-3.90
2023-11-30T22:05:33.358Z,-3.90
2023-11-30T22:08:09.589Z,-3.60
2023-11-30T22:10:41.610Z,-3.50
2023-11-30T22:13:11.956Z,-3.80
2023-11-30T22:15:41.746Z,-4.00
2023-11-30T22:18:13.487Z,-3.90
2023-11-30T22:20:47.699Z,-3.40
2023-11-30T22:23:17.627Z,-3.50
2023-11-30T22:25:51.173Z,-3.80
2023-11-30T22:28:25.453Z,-3.30
2023-11-30T22:30:58.284Z,-3.80
2023-11-30T22:33:35.804Z,-3.10
2023-11-30T22:36:08.655Z,-3.80
2023-11-30T22:38:43.942Z,-3.60
2023-11-30T22:41:15.790Z,-3.70
2023-11-30T22:43:45.145Z,-3.60
2023-11-30T22:46:21.641Z,-2.90
2023-11-30T22:48:53.746Z,-3.20
2023-11-30T22:51:27.891Z,-3.10
2023-11-30T22:53:59.371Z,-3.60
2023-11-30T22:56:31.187Z,-3.50
2023-11-30T22:59:01.079Z,-3.20
2023-11-30T23:01:32.551Z,-3.00
2023-11-30T23:04:03.046Z,-3.30
2023-11-30T23:06:34.478Z,-2.90
2023-11-30T23:09:08.729Z,-3.30
2023-11-30T23:11:38.185Z,-3.30
2023-11-30T23:14:10.448Z,-3.30
2023-11-30T23:16:43.233Z,-3.30
2023-11-30T23:19:16.212Z,-3.20
2023-11-30T23:21:50.005Z,-3.20
2023-11-30T23:24:25.884Z,-3.70
2023-11-30T23:27:01.034Z,-3.20
2023-11-30T23:29:37.408Z,-3.10
2023-11-30T23:32:10.660Z,-3.40
2023-11-30T23:34:45.491Z,-3.50
2023-11-30T23:37:19.237Z,-3.60
2023-11-30T23:39:49.232Z,-3.10
2023-11-30T23:42:18.953Z,-3.50
2023-11-30T23:44:48.925Z,-3.80
2023-11-30T23:47:18.324Z,-3.30
2023-11-30T23:49:48.353Z,-3.10
2023-11-30T23:52:19.506Z,-3.30
2023-11-30T23:54:53.470Z,-2.70
2023-11-30T23:57:29.352Z,-3.40
